createdAt,value
2023-03-06T00:01:09.179Z,6.32
2023-03-06T00:03:36.222Z,7.03
2023-03-06T00:06:03.040Z,6.23
2023-03-06T00:08:29.838Z,6.40
2023-03-06T00:10:57.143Z,6.35
2023-03-06T00:13:24.257Z,6.20
2023-03-06T00:15:51.113Z,6.28
2023-03-06T00:18:17.861Z,6.30
2023-03-06T00:20:44.906Z,6.28
2023-03-06T00:23:12.267Z,6.80
2023-03-06T00:25:42.854Z,6.53
2023-03-06T00:28:09.719Z,6.53
2023-03-06T00:30:36.597Z,5.83
2023-03-06T00:33:03.152Z,6.18
2023-03-06T00:35:29.814Z,6.72
2023-03-06T00:37:57.906Z,7.00
2023-03-06T00:40:24.570Z,6.60
2023-03-06T00:42:51.439Z,6.27
2023-03-06T00:45:18.092Z,6.57
2023-03-06T00:47:44.655Z,6.20
2023-03-06T00:50:11.684Z,6.40
2023-03-06T00:52:38.775Z,6.45
2023-03-06T00:55:06.092Z,5.80
2023-03-06T00:57:32.961Z,5.70
2023-03-06T00:59:59.627Z,6.60
2023-03-06T01:02:26.372Z,5.82
2023-03-06T01:04:52.946Z,5.85
2023-03-06T01:07:19.841Z,5.43
2023-03-06T01:09:46.348Z,6.07
2023-03-06T01:12:12.908Z,5.53
2023-03-06T01:14:39.559Z,5.95
2023-03-06T01:17:06.039Z,6.00
2023-03-06T01:19:32.916Z,5.83
2023-03-06T01:21:59.506Z,6.03
2023-03-06T01:24:26.242Z,5.10
2023-03-06T01:26:53.215Z,5.35
2023-03-06T01:29:20.551Z,6.28
2023-03-06T01:31:47.256Z,5.60
2023-03-06T01:34:14.168Z,5.40
2023-03-06T01:36:40.944Z,5.47
2023-03-06T01:39:07.515Z,5.45
2023-03-06T01:41:34.188Z,5.05
2023-03-06T01:44:01.014Z,4.70
2023-03-06T01:46:38.020Z,4.97
2023-03-06T01:49:07.861Z,5.65
2023-03-06T01:52:09.006Z,4.93
2023-03-06T01:54:50.460Z,5.20
2023-03-06T01:57:30.566Z,5.30
2023-03-06T02:00:08.402Z,5.47
2023-03-06T02:02:35.313Z,5.22
2023-03-06T02:05:04.475Z,5.80
2023-03-06T02:07:31.866Z,4.82
2023-03-06T02:09:58.654Z,5.47
2023-03-06T02:12:26.454Z,5.50
2023-03-06T02:14:53.749Z,5.30
2023-03-06T02:17:22.639Z,5.03
2023-03-06T02:20:20.860Z,5.25
2023-03-06T02:23:10.078Z,5.53
2023-03-06T02:25:44.207Z,4.95
2023-03-06T02:28:13.964Z,5.93
2023-03-06T02:30:42.969Z,5.30
2023-03-06T02:33:18.863Z,5.28
2023-03-06T02:35:57.780Z,4.73
2023-03-06T02:38:34.140Z,5.40
2023-03-06T02:41:03.822Z,4.85
2023-03-06T02:43:34.350Z,5.60
2023-03-06T02:46:00.985Z,4.68
2023-03-06T02:48:27.581Z,5.07
2023-03-06T02:50:54.239Z,4.70
2023-03-06T02:53:21.872Z,4.70
2023-03-06T02:55:49.345Z,4.95
2023-03-06T02:58:16.084Z,5.00
2023-03-06T03:00:42.827Z,4.83
2023-03-06T03:03:09.421Z,4.55
2023-03-06T03:05:36.191Z,4.63
2023-03-06T03:08:02.736Z,4.53
2023-03-06T03:10:29.757Z,4.50
2023-03-06T03:12:59.058Z,4.90
2023-03-06T03:15:26.190Z,4.65
2023-03-06T03:17:52.873Z,4.82
2023-03-06T03:20:22.216Z,4.53
2023-03-06T03:22:50.934Z,4.65
2023-03-06T03:25:18.508Z,4.50
2023-03-06T03:27:45.312Z,4.70
2023-03-06T03:30:12.267Z,4.90
2023-03-06T03:32:38.876Z,4.50
2023-03-06T03:35:07.239Z,4.68
2023-03-06T03:37:34.792Z,4.40
2023-03-06T03:40:01.353Z,4.28
2023-03-06T03:42:28.100Z,4.93
2023-03-06T03:44:54.728Z,4.53
2023-03-06T03:47:21.296Z,4.75
2023-03-06T03:49:47.939Z,5.13
2023-03-06T03:52:14.547Z,4.95
2023-03-06T03:54:42.174Z,4.82
2023-03-06T03:57:08.830Z,4.70
2023-03-06T03:59:35.911Z,4.40
2023-03-06T04:02:05.117Z,4.73
2023-03-06T04:04:31.909Z,5.00
2023-03-06T04:07:00.942Z,4.20
2023-03-06T04:09:28.018Z,4.85
2023-03-06T04:11:54.725Z,4.53
2023-03-06T04:14:21.517Z,4.93
2023-03-06T04:16:48.019Z,4.75
2023-03-06T04:19:14.567Z,4.85
2023-03-06T04:21:41.103Z,4.85
2023-03-06T04:24:08.004Z,4.78
2023-03-06T04:26:36.146Z,4.47
2023-03-06T04:29:02.901Z,4.55
2023-03-06T04:31:29.946Z,4.60
2023-03-06T04:33:56.714Z,4.78
2023-03-06T04:36:34.697Z,4.75
2023-03-06T04:39:01.844Z,4.47
2023-03-06T04:41:28.496Z,4.80
2023-03-06T04:43:55.170Z,5.05
2023-03-06T04:46:21.932Z,5.03
2023-03-06T04:48:48.521Z,4.47
2023-03-06T04:51:15.532Z,4.77
2023-03-06T04:53:42.051Z,4.95
2023-03-06T04:56:08.976Z,4.43
2023-03-06T04:58:35.857Z,4.32
2023-03-06T05:01:03.044Z,4.28
2023-03-06T05:03:29.834Z,4.40
2023-03-06T05:05:56.465Z,4.68
2023-03-06T05:08:24.302Z,4.18
2023-03-06T05:10:57.118Z,4.15
2023-03-06T05:13:24.443Z,4.75
2023-03-06T05:15:51.677Z,4.23
2023-03-06T05:18:19.246Z,4.53
2023-03-06T05:20:45.998Z,5.13
2023-03-06T05:23:13.004Z,4.25
2023-03-06T05:25:40.739Z,4.28
2023-03-06T05:28:07.857Z,4.20
2023-03-06T05:30:35.407Z,4.18
2023-03-06T05:33:02.044Z,4.20
2023-03-06T05:35:28.702Z,4.47
2023-03-06T05:37:55.304Z,4.20
2023-03-06T05:40:22.341Z,4.27
2023-03-06T05:42:49.032Z,4.30
2023-03-06T05:45:15.722Z,4.90
2023-03-06T05:47:42.239Z,3.88
2023-03-06T05:50:10.636Z,4.35
2023-03-06T05:52:40.198Z,4.20
2023-03-06T05:55:07.720Z,4.60
2023-03-06T05:57:34.332Z,4.47
2023-03-06T06:00:00.917Z,4.78
2023-03-06T06:02:38.088Z,4.65
2023-03-06T06:05:08.161Z,4.50
2023-03-06T06:07:34.982Z,4.55
2023-03-06T06:10:03.616Z,4.72
2023-03-06T06:12:30.777Z,4.40
2023-03-06T06:14:57.856Z,4.03
2023-03-06T06:17:24.797Z,5.07
2023-03-06T06:19:51.512Z,4.30
2023-03-06T06:22:18.370Z,4.22
2023-03-06T06:24:44.887Z,3.70
2023-03-06T06:27:11.899Z,3.60
2023-03-06T06:29:43.971Z,3.50
2023-03-06T06:32:10.541Z,3.63
2023-03-06T06:34:46.435Z,4.15
2023-03-06T06:37:15.146Z,3.47
2023-03-06T06:39:43.067Z,3.67
2023-03-06T06:42:30.980Z,3.97
2023-03-06T06:45:03.560Z,2.28
2023-03-06T06:47:34.419Z,2.15
2023-03-06T06:50:01.115Z,4.00
2023-03-06T06:52:28.115Z,3.85
2023-03-06T06:54:54.821Z,3.77
2023-03-06T06:57:22.429Z,3.72
2023-03-06T06:59:50.648Z,4.10
2023-03-06T07:02:18.799Z,3.88
2023-03-06T07:05:01.874Z,4.25
2023-03-06T07:07:36.658Z,4.03
2023-03-06T07:10:11.514Z,4.97
2023-03-06T07:12:38.184Z,4.30
2023-03-06T07:15:14.632Z,4.50
2023-03-06T07:17:45.426Z,4.72
2023-03-06T07:20:35.249Z,4.47
2023-03-06T07:23:12.526Z,4.28
2023-03-06T07:25:46.816Z,4.38
2023-03-06T07:28:18.606Z,4.18
2023-03-06T07:30:50.556Z,5.00
2023-03-06T07:33:46.013Z,4.27
2023-03-06T07:39:44.498Z,4.70
2023-03-06T07:42:13.779Z,4.00
2023-03-06T07:44:49.790Z,4.63
2023-03-06T07:47:25.148Z,4.30
2023-03-06T07:49:56.220Z,4.40
2023-03-06T07:52:24.078Z,4.13
2023-03-06T07:54:50.722Z,5.63
2023-03-06T07:57:19.633Z,5.22
2023-03-06T07:59:46.178Z,4.73
2023-03-06T08:02:13.094Z,5.10
2023-03-06T08:04:39.676Z,4.97
2023-03-06T08:07:06.404Z,4.97
2023-03-06T08:10:11.376Z,5.95
2023-03-06T08:12:45.726Z,5.07
2023-03-06T08:15:12.783Z,5.05
2023-03-06T08:17:39.727Z,5.45
2023-03-06T08:20:10.507Z,4.90
2023-03-06T08:22:41.079Z,5.00
2023-03-06T08:25:13.522Z,5.90
2023-03-06T08:27:47.883Z,5.25
2023-03-06T08:30:14.958Z,5.50
2023-03-06T08:32:45.027Z,5.03
2023-03-06T08:35:11.734Z,5.10
2023-03-06T08:37:39.175Z,4.63
2023-03-06T08:40:11.599Z,4.93
2023-03-06T08:42:58.550Z,5.10
2023-03-06T08:45:25.176Z,4.60
2023-03-06T08:47:52.148Z,4.18
2023-03-06T08:50:19.454Z,4.60
2023-03-06T08:52:47.917Z,3.90
2023-03-06T08:55:17.282Z,3.90
2023-03-06T08:57:47.594Z,4.47
2023-03-06T09:00:14.936Z,4.40
2023-03-06T09:02:43.442Z,4.53
2023-03-06T09:05:12.626Z,4.05
2023-03-06T09:07:39.365Z,4.57
2023-03-06T09:10:06.612Z,2.47
2023-03-06T09:12:47.363Z,3.20
2023-03-06T09:15:19.283Z,4.60
2023-03-06T09:17:47.625Z,4.80
2023-03-06T09:20:18.541Z,4.22
2023-03-06T09:22:48.223Z,4.25
2023-03-06T09:25:20.590Z,4.05
2023-03-06T09:28:01.873Z,4.10
2023-03-06T09:30:31.901Z,3.25
2023-03-06T09:32:58.520Z,4.30
2023-03-06T09:35:25.423Z,3.58
2023-03-06T09:37:52.010Z,4.25
2023-03-06T09:40:31.196Z,3.90
2023-03-06T09:42:57.829Z,3.92
2023-03-06T09:45:32.817Z,3.70
2023-03-06T09:48:10.393Z,4.63
2023-03-06T09:51:02.281Z,3.85
2023-03-06T09:53:45.856Z,3.77
2023-03-06T09:56:20.708Z,4.10
2023-03-06T09:58:53.963Z,3.50
2023-03-06T10:01:31.816Z,3.55
2023-03-06T10:03:58.835Z,3.03
2023-03-06T10:06:34.797Z,3.23
2023-03-06T10:09:16.845Z,3.90
2023-03-06T10:12:05.275Z,3.97
2023-03-06T10:14:37.853Z,3.58
2023-03-06T10:17:06.113Z,3.78
2023-03-06T10:19:53.263Z,3.60
2023-03-06T10:22:38.714Z,4.25
2023-03-06T10:25:19.546Z,3.47
2023-03-06T10:27:49.814Z,4.05
2023-03-06T10:30:27.818Z,3.63
2023-03-06T10:33:22.840Z,3.47
2023-03-06T10:35:51.796Z,2.97
2023-03-06T10:38:38.315Z,3.28
2023-03-06T10:41:13.535Z,3.50
2023-03-06T10:43:45.444Z,4.43
2023-03-06T10:46:26.194Z,3.83
2023-03-06T10:48:59.502Z,4.32
2023-03-06T10:51:28.323Z,4.72
2023-03-06T10:54:22.619Z,4.95
2023-03-06T10:56:49.295Z,4.72
2023-03-06T10:59:18.424Z,3.70
2023-03-06T11:02:15.325Z,3.70
2023-03-06T11:04:46.521Z,4.07
2023-03-06T11:07:26.097Z,3.33
2023-03-06T11:10:00.517Z,3.97
2023-03-06T11:12:32.489Z,2.97
2023-03-06T11:15:35.054Z,3.03
2023-03-06T11:18:36.514Z,3.35
2023-03-06T11:21:07.612Z,3.40
2023-03-06T11:23:41.691Z,2.63
2023-03-06T11:26:17.697Z,3.20
2023-03-06T11:28:46.651Z,2.53
2023-03-06T11:31:16.092Z,2.90
2023-03-06T11:33:48.005Z,3.22
2023-03-06T11:36:52.547Z,2.92
2023-03-06T11:39:54.835Z,2.17
2023-03-06T11:42:41.071Z,2.65
2023-03-06T11:45:12.384Z,2.53
2023-03-06T11:47:53.594Z,2.20
2023-03-06T11:50:34.837Z,2.00
2023-03-06T11:53:13.238Z,1.80
2023-03-06T11:55:45.814Z,2.13
2023-03-06T11:58:34.214Z,2.50
2023-03-06T12:01:22.731Z,3.17
2023-03-06T12:03:49.601Z,2.85
2023-03-06T12:06:45.069Z,2.77
2023-03-06T12:09:14.601Z,2.85
2023-03-06T12:11:44.361Z,2.85
2023-03-06T12:14:33.802Z,2.90
2023-03-06T12:17:43.368Z,2.50
2023-03-06T12:20:40.337Z,1.90
2023-03-06T12:23:47.746Z,2.13
2023-03-06T12:26:22.875Z,2.35
2023-03-06T12:29:20.341Z,1.85
2023-03-06T12:32:05.427Z,2.38
2023-03-06T12:34:47.347Z,2.47
2023-03-06T12:37:25.755Z,2.53
2023-03-06T12:40:16.228Z,2.00
2023-03-06T12:43:25.973Z,1.80
2023-03-06T12:46:01.419Z,2.10
2023-03-06T12:48:35.997Z,2.10
2023-03-06T12:51:08.564Z,2.65
2023-03-06T12:53:41.123Z,2.10
2023-03-06T12:56:14.418Z,1.73
2023-03-06T12:58:52.483Z,1.65
2023-03-06T13:01:47.260Z,1.70
2023-03-06T13:04:41.459Z,2.38
2023-03-06T13:07:38.981Z,2.47
2023-03-06T13:10:27.575Z,2.17
2023-03-06T13:13:00.831Z,2.35
2023-03-06T13:15:36.781Z,1.73
2023-03-06T13:18:33.008Z,2.13
2023-03-06T13:21:03.055Z,2.05
2023-03-06T13:23:32.892Z,2.00
2023-03-06T13:26:04.838Z,2.20
2023-03-06T13:28:45.409Z,2.07
2023-03-06T13:31:27.088Z,1.65
2023-03-06T13:34:02.560Z,2.15
2023-03-06T13:36:39.745Z,2.00
2023-03-06T13:39:08.628Z,2.03
2023-03-06T13:41:41.535Z,2.03
2023-03-06T13:44:25.910Z,2.03
2023-03-06T13:47:01.152Z,2.55
2023-03-06T13:49:29.371Z,2.88
2023-03-06T13:52:05.193Z,2.83
2023-03-06T13:55:02.233Z,2.20
2023-03-06T13:57:47.699Z,1.90
2023-03-06T14:00:34.298Z,2.40
2023-03-06T14:03:00.786Z,2.63
2023-03-06T14:05:43.494Z,2.80
2023-03-06T14:08:17.059Z,2.67
2023-03-06T14:10:45.093Z,2.50
2023-03-06T14:13:18.819Z,2.30
2023-03-06T14:15:49.245Z,2.60
2023-03-06T14:18:18.856Z,2.60
2023-03-06T14:20:50.640Z,2.07
2023-03-06T14:23:29.853Z,2.08
2023-03-06T14:26:17.744Z,2.30
2023-03-06T14:28:58.851Z,2.75
2023-03-06T14:31:28.997Z,2.33
2023-03-06T14:34:05.445Z,1.90
2023-03-06T14:36:37.102Z,2.08
2023-03-06T14:39:12.197Z,2.00
2023-03-06T14:41:39.497Z,2.00
2023-03-06T14:44:12.124Z,2.65
2023-03-06T14:46:38.801Z,2.10
2023-03-06T14:49:08.839Z,1.35
2023-03-06T14:51:50.977Z,1.92
2023-03-06T14:54:21.384Z,1.98
2023-03-06T14:56:54.116Z,1.60
2023-03-06T14:59:26.214Z,1.30
2023-03-06T15:01:59.314Z,4.10
2023-03-06T15:04:32.585Z,1.27
2023-03-06T15:07:00.867Z,1.85
2023-03-06T15:09:31.715Z,1.63
2023-03-06T15:12:02.933Z,1.73
2023-03-06T15:14:37.162Z,1.30
2023-03-06T15:17:19.056Z,1.65
2023-03-06T15:19:47.721Z,1.05
2023-03-06T15:22:31.798Z,1.30
2023-03-06T15:25:30.702Z,1.40
2023-03-06T15:27:59.581Z,1.35
2023-03-06T15:30:33.595Z,1.60
2023-03-06T15:33:31.541Z,1.13
2023-03-06T15:36:00.872Z,1.50
2023-03-06T15:38:30.395Z,1.13
2023-03-06T15:41:01.652Z,1.15
2023-03-06T15:43:33.939Z,1.13
2023-03-06T15:46:01.348Z,0.82
2023-03-06T15:48:28.526Z,0.60
2023-03-06T15:50:55.153Z,0.60
2023-03-06T15:53:21.811Z,0.90
2023-03-06T15:55:50.225Z,1.20
2023-03-06T15:58:20.745Z,1.55
2023-03-06T16:00:47.521Z,1.45
2023-03-06T16:03:14.037Z,1.33
2023-03-06T16:05:40.990Z,1.08
2023-03-06T16:08:07.867Z,1.40
2023-03-06T16:10:38.506Z,0.98
2023-03-06T16:13:10.468Z,1.20
2023-03-06T16:15:44.932Z,1.73
2023-03-06T16:18:12.548Z,3.60
2023-03-06T16:20:40.203Z,2.33
2023-03-06T16:23:10.410Z,1.70
2023-03-06T16:25:42.266Z,0.75
2023-03-06T16:28:12.752Z,1.03
2023-03-06T16:31:03.304Z,1.25
2023-03-06T16:33:32.726Z,0.90
2023-03-06T16:35:59.397Z,1.20
2023-03-06T16:38:28.820Z,0.38
2023-03-06T16:40:56.417Z,1.00
2023-03-06T16:43:24.037Z,1.00
2023-03-06T16:45:51.073Z,0.90
2023-03-06T16:48:17.736Z,0.68
2023-03-06T16:50:45.562Z,0.80
2023-03-06T16:53:12.333Z,0.90
2023-03-06T16:55:39.011Z,0.70
2023-03-06T16:58:10.077Z,0.70
2023-03-06T17:00:36.822Z,0.60
2023-03-06T17:03:03.497Z,0.25
2023-03-06T17:05:33.460Z,1.10
2023-03-06T17:08:00.333Z,1.33
2023-03-06T17:10:27.437Z,1.40
2023-03-06T17:12:56.298Z,0.70
2023-03-06T17:15:23.069Z,0.43
2023-03-06T17:17:51.741Z,1.13
2023-03-06T17:20:19.129Z,1.00
2023-03-06T17:22:46.081Z,1.08
2023-03-06T17:25:12.858Z,1.25
2023-03-06T17:27:39.518Z,0.90
2023-03-06T17:30:06.820Z,0.73
2023-03-06T17:32:33.609Z,1.30
2023-03-06T17:35:00.840Z,1.40
2023-03-06T17:37:27.544Z,1.02
2023-03-06T17:39:54.586Z,1.20
2023-03-06T17:42:21.473Z,1.40
2023-03-06T17:44:48.136Z,1.10
2023-03-06T17:47:14.710Z,1.00
2023-03-06T17:49:41.319Z,0.98
2023-03-06T17:52:08.206Z,1.52
2023-03-06T17:54:35.202Z,1.10
2023-03-06T17:57:03.754Z,1.25
2023-03-06T17:59:31.589Z,1.00
2023-03-06T18:01:59.288Z,1.30
2023-03-06T18:04:27.010Z,1.35
2023-03-06T18:06:53.677Z,1.20
2023-03-06T18:09:20.396Z,1.13
2023-03-06T18:11:47.132Z,1.10
2023-03-06T18:14:14.148Z,1.08
2023-03-06T18:16:41.033Z,0.90
2023-03-06T18:19:12.268Z,0.93
2023-03-06T18:21:40.119Z,0.63
2023-03-06T18:24:07.351Z,1.15
2023-03-06T18:26:34.351Z,1.10
2023-03-06T18:29:04.546Z,0.98
2023-03-06T18:31:37.839Z,1.10
2023-03-06T18:34:08.110Z,1.00
2023-03-06T18:36:35.554Z,0.95
2023-03-06T18:39:03.988Z,0.80
2023-03-06T18:41:31.749Z,0.80
2023-03-06T18:44:00.700Z,0.57
2023-03-06T18:46:35.947Z,0.65
2023-03-06T18:49:03.736Z,0.85
2023-03-06T18:51:30.518Z,0.60
2023-03-06T18:53:58.819Z,1.00
2023-03-06T18:56:25.575Z,0.80
2023-03-06T18:58:52.830Z,1.05
2023-03-06T19:01:20.343Z,0.80
2023-03-06T19:03:47.075Z,1.05
2023-03-06T19:06:16.831Z,1.10
2023-03-06T19:08:43.967Z,0.80
2023-03-06T19:11:13.856Z,0.80
2023-03-06T19:13:40.626Z,0.98
2023-03-06T19:16:07.892Z,1.00
2023-03-06T19:18:35.745Z,1.10
2023-03-06T19:21:17.575Z,1.00
2023-03-06T19:23:44.435Z,0.88
2023-03-06T19:26:11.418Z,1.42
2023-03-06T19:28:40.542Z,1.40
2023-03-06T19:31:25.260Z,1.50
2023-03-06T19:33:53.484Z,1.20
2023-03-06T19:36:23.969Z,1.30
2023-03-06T19:38:54.986Z,1.42
2023-03-06T19:41:22.331Z,1.30
2023-03-06T19:43:52.337Z,1.33
2023-03-06T19:46:19.488Z,1.10
2023-03-06T19:48:47.974Z,1.00
2023-03-06T19:51:14.682Z,1.10
2023-03-06T19:53:41.909Z,1.05
2023-03-06T19:56:16.087Z,1.30
2023-03-06T19:58:42.734Z,1.30
2023-03-06T20:01:19.593Z,1.30
2023-03-06T20:03:46.442Z,1.45
2023-03-06T20:06:15.973Z,1.25
2023-03-06T20:08:43.611Z,1.50
2023-03-06T20:11:26.080Z,1.43
2023-03-06T20:13:53.361Z,1.40
2023-03-06T20:16:20.087Z,1.35
2023-03-06T20:18:46.761Z,1.92
2023-03-06T20:21:14.458Z,1.60
2023-03-06T20:23:41.445Z,1.30
2023-03-06T20:26:13.227Z,1.50
2023-03-06T20:28:41.569Z,1.50
2023-03-06T20:31:10.448Z,1.60
2023-03-06T20:33:37.166Z,1.10
2023-03-06T20:36:04.554Z,1.30
2023-03-06T20:38:31.554Z,1.50
2023-03-06T20:40:59.788Z,1.60
2023-03-06T20:43:26.529Z,1.63
2023-03-06T20:46:00.474Z,1.52
2023-03-06T20:48:27.305Z,1.77
2023-03-06T20:51:06.906Z,1.20
2023-03-06T20:53:35.250Z,1.63
2023-03-06T20:56:22.339Z,1.65
2023-03-06T20:58:52.652Z,1.85
2023-03-06T21:01:25.678Z,0.77
2023-03-06T21:03:53.079Z,1.25
2023-03-06T21:06:20.953Z,1.65
2023-03-06T21:08:48.408Z,1.50
2023-03-06T21:11:15.829Z,1.75
2023-03-06T21:13:43.055Z,1.40
2023-03-06T21:16:13.345Z,1.60
2023-03-06T21:18:40.597Z,1.65
2023-03-06T21:21:11.326Z,1.25
2023-03-06T21:23:38.595Z,1.58
2023-03-06T21:26:05.721Z,1.00
2023-03-06T21:28:35.742Z,1.52
2023-03-06T21:31:05.849Z,1.77
2023-03-06T21:33:32.453Z,1.45
2023-03-06T21:35:59.158Z,1.48
2023-03-06T21:38:26.219Z,1.50
2023-03-06T21:40:52.959Z,1.70
2023-03-06T21:43:20.135Z,1.48
2023-03-06T21:45:48.807Z,1.30
2023-03-06T21:48:16.175Z,1.25
2023-03-06T21:50:42.773Z,1.37
2023-03-06T21:53:09.793Z,1.40
2023-03-06T21:55:40.895Z,1.38
2023-03-06T21:58:07.901Z,1.17
2023-03-06T22:00:36.566Z,1.45
2023-03-06T22:03:04.730Z,1.17
2023-03-06T22:05:34.276Z,2.42
2023-03-06T22:08:01.250Z,1.90
2023-03-06T22:10:28.528Z,1.13
2023-03-06T22:12:55.135Z,1.10
2023-03-06T22:15:28.357Z,0.73
2023-03-06T22:17:55.191Z,0.68
2023-03-06T22:20:22.248Z,0.93
2023-03-06T22:22:49.199Z,0.85
2023-03-06T22:25:15.846Z,1.00
2023-03-06T22:27:42.438Z,0.80
2023-03-06T22:30:09.587Z,0.93
2023-03-06T22:32:36.257Z,1.00
2023-03-06T22:35:03.303Z,0.75
2023-03-06T22:37:31.402Z,0.93
2023-03-06T22:39:58.060Z,0.60
2023-03-06T22:42:24.656Z,0.77
2023-03-06T22:44:51.253Z,1.13
2023-03-06T22:47:17.764Z,1.15
2023-03-06T22:49:44.305Z,1.20
2023-03-06T22:52:10.952Z,1.13
2023-03-06T22:54:37.669Z,1.30
2023-03-06T22:57:09.174Z,0.98
2023-03-06T22:59:35.761Z,0.90
2023-03-06T23:02:03.823Z,1.75
2023-03-06T23:04:30.381Z,0.90
2023-03-06T23:06:57.442Z,1.10
2023-03-06T23:09:25.170Z,1.25
2023-03-06T23:11:51.904Z,1.08
2023-03-06T23:14:19.550Z,0.85
2023-03-06T23:16:46.499Z,0.63
2023-03-06T23:19:13.274Z,0.82
2023-03-06T23:21:39.908Z,1.52
2023-03-06T23:24:07.770Z,1.67
2023-03-06T23:26:35.077Z,2.00
2023-03-06T23:29:04.382Z,1.10
2023-03-06T23:31:31.628Z,1.05
2023-03-06T23:34:00.657Z,0.85
2023-03-06T23:36:28.235Z,1.08
2023-03-06T23:38:55.465Z,1.25
2023-03-06T23:41:22.965Z,0.90
2023-03-06T23:43:50.543Z,1.00
2023-03-06T23:46:18.693Z,0.93
2023-03-06T23:48:46.097Z,0.90
2023-03-06T23:51:18.670Z,1.25
2023-03-06T23:53:47.145Z,0.43
2023-03-06T23:56:14.162Z,1.02
2023-03-06T23:58:41.307Z,0.50
